Time;durP1;ratioP1;P1;durP2;ratioP2;P2;SDS_P1;SDS_P2;PMS_P1;PMS_P2;Temp;Humidity;BMP_temperature;BMP_pressure;BME280_temperature;BME280_humidity;BME280_pressure;Samples;Min_cycle;Max_cycle;Signal;HPM_P1;HPM_P2
2021/06/30 00:01:50;;;;;;;0.20;0.20;;;16.90;70.80;;;19.52;58.62;100983.31;5109087;27;96747;-73
2021/06/30 00:04:36;;;;;;;0.40;0.40;;;16.90;70.80;;;19.50;59.17;100977.44;5068136;27;96861;-73
2021/06/30 00:07:23;;;;;;;0.35;0.35;;;16.90;70.90;;;19.54;58.83;100977.53;5047058;27;96794;-73
2021/06/30 00:10:12;;;;;;;0.57;0.50;;;16.90;70.90;;;19.54;58.77;100972.09;5035155;27;97073;-73
2021/06/30 00:12:58;;;;;;;0.55;0.55;;;16.90;70.90;;;19.53;59.21;100963.13;5049124;27;97634;-73
2021/06/30 00:15:42;;;;;;;0.10;0.10;;;16.90;70.90;;;19.49;58.64;100972.34;5047859;27;96815;-73
2021/06/30 00:18:29;;;;;;;0.68;0.68;;;16.80;70.80;;;19.52;58.85;100979.81;5075473;27;97056;-73
2021/06/30 00:21:15;;;;;;;0.75;0.52;;;16.80;70.80;;;19.52;58.92;100977.84;5065628;27;97201;-73
2021/06/30 00:24:03;;;;;;;0.20;0.20;;;16.80;70.90;;;19.46;59.12;100978.47;5067526;27;96877;-73
2021/06/30 00:26:50;;;;;;;1.38;0.30;;;16.80;70.90;;;19.40;58.99;100978.00;5107430;27;97202;-73
2021/06/30 00:29:35;;;;;;;0.00;0.00;;;16.80;70.90;;;19.46;59.04;100983.91;5066324;27;96910;-73
2021/06/30 00:32:21;;;;;;;0.20;0.20;;;16.80;71.00;;;19.45;58.80;100976.91;5052186;27;96781;-73
2021/06/30 00:35:04;;;;;;;0.10;0.10;;;16.70;70.90;;;19.45;59.02;100975.00;5081103;27;96878;-73
2021/06/30 00:37:49;;;;;;;0.00;0.00;;;16.80;71.00;;;19.47;59.27;100985.50;5066029;27;96697;-73
2021/06/30 00:40:35;;;;;;;0.68;0.68;;;16.70;70.90;;;19.46;58.83;100981.19;5088200;27;96768;-73
2021/06/30 00:43:22;;;;;;;0.43;0.43;;;16.70;71.00;;;19.41;58.82;100993.16;5126375;27;96625;-73
2021/06/30 00:46:08;;;;;;;2.70;0.82;;;16.70;71.00;;;19.43;58.73;100977.28;5062957;27;96797;-73
2021/06/30 00:48:49;;;;;;;0.10;0.05;;;16.70;71.00;;;19.48;58.77;100987.06;5060634;27;97277;-73
2021/06/30 00:51:36;;;;;;;0.00;0.00;;;16.70;71.10;;;19.49;58.66;100988.66;5068229;27;96788;-73
2021/06/30 00:54:21;;;;;;;0.52;0.52;;;16.70;71.00;;;19.46;58.67;100986.63;5067645;27;96734;-73
2021/06/30 00:57:12;;;;;;;0.90;0.77;;;16.70;71.10;;;19.46;58.62;100990.16;5054206;27;97250;-73
2021/06/30 00:59:57;;;;;;;0.25;0.25;;;16.70;71.10;;;19.47;58.21;100988.22;5038057;27;96742;-75
2021/06/30 01:02:43;;;;;;;9.93;0.73;;;16.70;71.10;;;19.46;58.80;100992.06;5102990;27;96692;-73
2021/06/30 01:05:30;;;;;;;0.38;0.30;;;16.70;71.10;;;19.54;58.62;100986.44;5050400;27;96693;-73
2021/06/30 01:08:16;;;;;;;0.13;0.13;;;16.70;71.20;;;19.61;57.95;100975.72;5067192;27;96902;-73
2021/06/30 01:11:03;;;;;;;0.10;0.10;;;16.70;71.10;;;19.64;58.47;100966.84;5060223;27;96587;-73
2021/06/30 01:13:52;;;;;;;1.08;0.98;;;16.70;71.10;;;19.51;58.71;100970.03;5033244;27;97736;-73
2021/06/30 01:16:34;;;;;;;0.10;0.10;;;16.70;71.10;;;19.48;58.44;100959.88;5075886;27;96881;-74
2021/06/30 01:19:22;;;;;;;0.88;0.85;;;16.70;71.10;;;19.42;59.20;100964.03;5051730;27;96616;-75
2021/06/30 01:22:08;;;;;;;0.10;0.10;;;16.80;71.10;;;19.40;59.06;100958.16;5120282;27;96628;-74
2021/06/30 01:24:55;;;;;;;0.47;0.20;;;16.70;71.70;;;19.36;59.07;100957.31;5065372;27;96494;-73
2021/06/30 01:27:37;;;;;;;0.43;0.43;;;16.70;71.00;;;19.33;59.21;100961.50;5065867;27;96498;-73
2021/06/30 01:30:26;;;;;;;0.93;0.68;;;16.70;71.10;;;19.33;59.20;100952.56;5093553;27;96560;-73
2021/06/30 01:33:13;;;;;;;0.68;0.43;;;16.70;71.10;;;19.33;59.15;100955.28;5051900;27;97820;-73
2021/06/30 01:36:04;;;;;;;0.15;0.15;;;16.70;71.10;;;19.27;59.31;100948.56;5096361;27;97400;-74
2021/06/30 01:38:45;;;;;;;0.22;0.17;;;16.60;71.10;;;19.24;59.25;100950.06;5061479;27;97492;-73
2021/06/30 01:41:32;;;;;;;0.25;0.20;;;16.60;71.20;;;19.25;59.36;100935.31;5053015;27;96671;-73
2021/06/30 01:44:19;;;;;;;0.00;0.00;;;16.60;71.20;;;19.26;59.34;100925.25;5058226;27;96662;-73
2021/06/30 01:47:00;;;;;;;0.35;0.35;;;16.60;71.30;;;19.27;59.11;100924.88;5039923;27;97282;-73
2021/06/30 01:49:46;;;;;;;0.08;0.08;;;16.60;71.30;;;19.28;59.04;100917.53;5108176;27;96680;-73
2021/06/30 01:52:35;;;;;;;0.10;0.10;;;16.60;71.30;;;19.26;59.07;100919.81;5065143;27;97310;-73
2021/06/30 01:55:21;;;;;;;0.08;0.08;;;16.60;71.40;;;19.21;59.50;100914.63;5109106;27;96756;-74
2021/06/30 01:58:08;;;;;;;0.77;0.52;;;16.60;71.30;;;19.24;59.49;100908.53;5066010;27;97707;-73
2021/06/30 02:00:56;;;;;;;0.10;0.10;;;16.60;71.40;;;19.20;59.73;100904.91;5106902;27;96745;-73
2021/06/30 02:03:42;;;;;;;0.00;0.00;;;16.60;71.40;;;19.19;59.40;100914.22;5092976;27;99290;-73
2021/06/30 02:06:23;;;;;;;0.10;0.10;;;16.50;71.30;;;19.17;59.61;100922.72;5067286;27;97333;-73
2021/06/30 02:09:10;;;;;;;1.40;0.30;;;16.60;71.40;;;19.14;59.72;100925.31;5078523;27;97466;-74
2021/06/30 02:11:55;;;;;;;0.17;0.17;;;16.60;71.40;;;19.08;59.53;100921.31;5082615;27;96930;-73
2021/06/30 02:14:42;;;;;;;0.20;0.20;;;16.50;71.20;;;19.06;59.56;100929.03;5050698;27;96665;-73
2021/06/30 02:17:28;;;;;;;0.38;0.38;;;16.50;71.30;;;19.01;59.40;100918.44;5065121;27;97148;-73
2021/06/30 02:20:16;;;;;;;1.00;0.47;;;16.40;71.30;;;19.00;59.17;100920.34;5096801;27;96691;-73
2021/06/30 02:23:05;;;;;;;1.73;0.40;;;16.40;71.40;;;18.99;59.79;100918.00;5091725;27;96685;-73
2021/06/30 02:25:51;;;;;;;5.13;1.60;;;16.40;71.50;;;19.04;59.71;100920.44;5106108;27;97323;-73
2021/06/30 02:28:38;;;;;;;0.10;0.10;;;16.40;71.60;;;19.10;59.64;100910.88;5085232;27;96657;-73
2021/06/30 02:31:25;;;;;;;0.00;0.00;;;16.40;71.60;;;19.11;59.51;100901.59;5066883;27;96734;-73
2021/06/30 02:34:10;;;;;;;0.25;0.25;;;16.40;71.60;;;19.08;59.31;100918.59;5067463;27;96818;-73
2021/06/30 02:36:57;;;;;;;0.10;0.10;;;16.40;71.50;;;19.01;59.76;100923.88;5067629;27;96727;-73
2021/06/30 02:39:43;;;;;;;0.35;0.17;;;16.40;71.50;;;18.92;59.59;100936.84;5035995;27;99795;-73
2021/06/30 02:42:29;;;;;;;0.13;0.13;;;16.40;71.40;;;18.94;59.54;100919.06;5110366;27;96957;-73
2021/06/30 02:45:19;;;;;;;0.50;0.30;;;16.40;71.60;;;18.94;60.11;100919.06;5062041;27;96959;-73
2021/06/30 02:48:00;;;;;;;0.25;0.25;;;16.40;71.60;;;18.95;59.85;100919.84;5106589;27;97015;-73
2021/06/30 02:50:46;;;;;;;0.00;0.00;;;16.40;71.60;;;18.93;59.96;100919.41;5064084;27;96783;-74
2021/06/30 02:53:33;;;;;;;0.40;0.40;;;16.40;71.60;;;18.96;60.06;100927.63;5061275;27;96798;-73
2021/06/30 02:56:21;;;;;;;0.20;0.17;;;16.40;72.20;;;19.03;59.89;100921.59;5052534;27;96881;-73
2021/06/30 02:59:08;;;;;;;1.67;0.47;;;16.40;71.60;;;18.95;60.07;100917.91;5087979;27;96539;-73
2021/06/30 03:01:54;;;;;;;0.98;0.50;;;16.40;71.50;;;18.94;59.74;100931.84;5055777;27;96743;-73
2021/06/30 03:04:43;;;;;;;0.20;0.20;;;16.40;71.50;;;18.90;59.72;100939.09;5048222;27;97751;-73
2021/06/30 03:07:29;;;;;;;0.10;0.10;;;16.40;71.50;;;18.87;60.16;100934.38;5056025;27;97481;-73
2021/06/30 03:10:15;;;;;;;0.30;0.30;;;16.40;71.50;;;18.90;60.17;100922.81;5069789;27;97110;-73
2021/06/30 03:12:57;;;;;;;0.30;0.30;;;16.40;71.50;;;18.94;59.74;100929.13;5051572;27;96960;-73
2021/06/30 03:15:44;;;;;;;0.10;0.10;;;16.40;71.50;;;18.96;60.14;100926.84;5067675;27;97434;-73
2021/06/30 03:18:29;;;;;;;0.00;0.00;;;16.40;71.60;;;19.00;59.97;100919.56;5066203;27;96865;-73
2021/06/30 03:21:16;;;;;;;0.25;0.22;;;16.40;71.60;;;19.01;59.90;100921.94;5065341;27;96744;-73
2021/06/30 03:24:03;;;;;;;0.10;0.10;;;16.40;71.50;;;19.03;59.90;100921.59;5086003;27;96615;-74
2021/06/30 03:26:50;;;;;;;0.45;0.43;;;16.40;71.60;;;19.02;59.45;100923.50;5108872;27;96674;-73
2021/06/30 03:29:36;;;;;;;1.13;0.93;;;16.40;71.50;;;19.03;59.57;100933.22;5075098;27;96771;-73
2021/06/30 03:32:22;;;;;;;0.50;0.50;;;16.40;71.60;;;19.07;59.70;100927.88;5050940;27;96684;-74
2021/06/30 03:35:10;;;;;;;0.17;0.15;;;16.40;71.60;;;19.05;59.72;100932.88;5059071;27;96940;-73
2021/06/30 03:38:08;;;;;;;1.65;0.98;;;16.50;71.70;;;19.09;59.54;100939.19;5057517;27;96748;-73
2021/06/30 03:40:54;;;;;;;0.20;0.20;;;16.40;71.60;;;19.09;59.90;100939.97;5053428;27;96841;-73
2021/06/30 03:43:40;;;;;;;1.30;0.65;;;16.50;71.70;;;19.09;59.98;100936.47;5110268;27;96824;-74
2021/06/30 03:46:26;;;;;;;0.70;0.52;;;16.50;71.60;;;19.10;59.90;100936.13;5064619;27;97065;-74
2021/06/30 03:49:13;;;;;;;1.00;0.85;;;16.50;71.60;;;19.08;59.95;100932.97;5056305;27;96846;-74
2021/06/30 03:51:59;;;;;;;0.55;0.52;;;16.50;71.60;;;19.10;59.66;100932.59;5075090;27;96837;-74
2021/06/30 03:54:47;;;;;;;0.75;0.73;;;16.50;71.60;;;19.10;60.01;100943.47;5033336;27;97427;-74
2021/06/30 03:57:34;;;;;;;0.32;0.30;;;16.50;71.70;;;19.12;59.70;100936.56;5068656;27;96664;-74
2021/06/30 04:00:20;;;;;;;1.85;0.75;;;16.50;71.70;;;19.17;59.55;100936.31;5057510;27;96835;-73
2021/06/30 04:03:06;;;;;;;0.03;0.03;;;16.50;71.70;;;19.15;59.69;100943.19;5096315;27;96692;-74
2021/06/30 04:05:52;;;;;;;0.80;0.75;;;16.50;71.70;;;19.15;59.72;100940.47;5082504;27;96741;-73
2021/06/30 04:08:38;;;;;;;0.47;0.43;;;16.50;71.60;;;19.15;59.73;100937.75;5068129;27;97400;-73
2021/06/30 04:11:24;;;;;;;1.48;0.73;;;16.50;72.20;;;19.15;59.93;100940.47;5052879;27;97059;-73
2021/06/30 04:14:11;;;;;;;0.30;0.30;;;16.50;71.60;;;19.19;59.71;100944.09;5054259;27;96794;-73
2021/06/30 04:16:57;;;;;;;3.00;2.03;;;16.50;71.70;;;19.21;59.47;100945.31;5050876;27;96862;-73
2021/06/30 04:19:44;;;;;;;0.32;0.32;;;16.60;71.70;;;19.12;59.66;100946.63;5068780;27;96809;-73
2021/06/30 04:22:33;;;;;;;1.05;1.00;;;16.50;71.60;;;19.15;59.83;100940.47;5065681;27;96577;-73
2021/06/30 04:25:20;;;;;;;2.30;1.02;;;16.50;71.70;;;19.18;59.57;100942.50;5061882;27;96754;-73
2021/06/30 04:28:07;;;;;;;0.47;0.28;;;16.50;71.70;;;19.15;59.78;100946.75;5032789;27;96792;-73
2021/06/30 04:30:49;;;;;;;1.17;1.08;;;16.50;71.70;;;19.15;59.94;100946.75;5068407;27;96913;-73
2021/06/30 04:33:35;;;;;;;0.00;0.00;;;16.60;71.70;;;19.18;60.07;100939.81;5047895;27;96691;-73
2021/06/30 04:36:21;;;;;;;0.20;0.20;;;16.60;71.70;;;19.22;60.12;100944.19;5088134;27;96981;-73
2021/06/30 04:39:08;;;;;;;1.40;0.57;;;16.60;71.70;;;19.28;59.76;100944.72;5060228;27;96602;-73
2021/06/30 04:41:54;;;;;;;0.32;0.32;;;16.60;71.70;;;19.32;59.78;100951.00;5046125;27;96828;-73
2021/06/30 04:44:36;;;;;;;8.05;1.48;;;16.60;71.60;;;19.41;59.36;100946.16;5067057;27;96695;-73
2021/06/30 04:47:21;;;;;;;0.47;0.47;;;16.70;71.60;;;19.43;59.49;100936.50;5050558;27;97189;-73
2021/06/30 04:50:04;;;;;;;0.90;0.75;;;16.70;71.60;;;19.50;59.18;100935.84;5088086;27;96575;-73
2021/06/30 04:52:51;;;;;;;15.85;0.85;;;16.70;71.50;;;19.52;58.76;100933.59;5050462;27;96957;-73
2021/06/30 04:55:37;;;;;;;1.02;0.38;;;16.80;71.50;;;19.56;59.26;100937.94;5058770;27;96795;-73
2021/06/30 04:58:25;;;;;;;0.20;0.20;;;16.80;71.40;;;19.60;59.07;100943.47;5053249;27;96730;-73
2021/06/30 05:01:11;;;;;;;0.10;0.10;;;16.80;71.40;;;19.61;59.11;100953.19;5092695;27;97157;-73
2021/06/30 05:03:57;;;;;;;0.10;0.10;;;16.80;71.40;;;19.62;59.13;100958.25;5062088;27;97194;-73
2021/06/30 05:06:44;;;;;;;0.40;0.22;;;16.80;71.40;;;19.67;59.04;100955.28;5063056;27;97166;-73
2021/06/30 05:09:25;;;;;;;8.95;0.82;;;16.90;71.50;;;19.69;58.90;100961.16;5055470;27;96760;-73
2021/06/30 05:12:11;;;;;;;0.65;0.65;;;16.90;71.50;;;19.72;58.68;100960.44;5062602;27;96716;-73
2021/06/30 05:14:57;;;;;;;1.63;1.45;;;16.90;71.40;;;19.73;58.77;100963.94;5087217;27;96799;-73
2021/06/30 05:17:43;;;;;;;0.50;0.50;;;16.90;71.40;;;19.75;59.13;100959.72;5046786;27;96884;-73
2021/06/30 05:20:30;;;;;;;0.60;0.60;;;16.90;71.40;;;19.75;58.86;100958.94;5034767;27;96834;-74
2021/06/30 05:23:16;;;;;;;0.90;0.75;;;16.90;71.40;;;19.76;58.61;100961.31;5061184;27;96791;-73
2021/06/30 05:26:04;;;;;;;0.35;0.35;;;16.90;71.40;;;19.75;58.73;100950.75;5056221;27;96776;-73
2021/06/30 05:28:51;;;;;;;0.68;0.65;;;16.90;71.40;;;19.78;58.60;100959.00;5073223;27;96852;-74
2021/06/30 05:31:37;;;;;;;2.15;1.65;;;16.90;71.40;;;19.84;58.57;100962.25;5066325;27;96756;-73
2021/06/30 05:34:24;;;;;;;0.75;0.55;;;16.90;71.40;;;19.88;59.15;100960.38;5031923;27;96758;-73
2021/06/30 05:37:10;;;;;;;0.85;0.73;;;17.00;71.40;;;19.85;58.61;100966.53;5067992;27;96759;-73
2021/06/30 05:40:09;;;;;;;1.55;0.70;;;17.00;71.40;;;19.81;59.04;100955.56;5102669;27;96607;-73
2021/06/30 05:42:55;;;;;;;0.80;0.52;;;17.00;71.40;;;19.83;58.93;100966.88;5064331;27;96779;-73
2021/06/30 05:45:43;;;;;;;5.18;0.80;;;17.00;71.40;;;19.77;59.16;100970.22;5107307;27;96921;-73
2021/06/30 05:48:30;;;;;;;0.57;0.45;;;17.00;71.50;;;19.77;59.15;100965.59;5127006;27;96805;-74
2021/06/30 05:51:16;;;;;;;0.75;0.75;;;17.00;71.40;;;19.83;59.27;100971.53;5107663;27;96602;-73
2021/06/30 05:54:04;;;;;;;1.45;1.35;;;17.00;71.40;;;19.88;59.05;100965.81;5062618;27;96765;-74
2021/06/30 05:56:51;;;;;;;0.38;0.38;;;17.10;71.50;;;19.84;59.38;100967.69;5109293;27;96695;-73
2021/06/30 05:59:36;;;;;;;0.68;0.68;;;17.10;71.50;;;19.86;59.31;100973.53;5064748;27;99677;-74
2021/06/30 06:02:18;;;;;;;1.30;1.20;;;17.10;71.50;;;19.89;59.23;100968.16;5065433;27;96754;-74
2021/06/30 06:05:08;;;;;;;4.07;1.50;;;17.10;71.50;;;19.88;58.95;100965.81;5055177;27;97388;-73
2021/06/30 06:07:55;;;;;;;2.53;0.65;;;17.10;71.50;;;19.89;59.07;100959.22;5057780;27;96764;-73
2021/06/30 06:10:43;;;;;;;0.50;0.50;;;17.10;71.50;;;19.93;58.90;100968.25;5093432;27;96997;-74
2021/06/30 06:13:29;;;;;;;2.15;1.02;;;17.10;71.50;;;19.93;59.43;100962.81;5072181;27;97095;-73
2021/06/30 06:16:27;;;;;;;3.00;1.30;;;17.10;71.50;;;19.98;59.02;100966.03;5049478;27;97213;-73
2021/06/30 06:19:13;;;;;;;2.65;0.93;;;17.10;71.50;;;20.02;59.42;100968.84;5094316;27;97094;-73
2021/06/30 06:21:59;;;;;;;1.77;1.27;;;17.10;71.50;;;20.05;59.35;100963.47;5062915;27;96954;-73
2021/06/30 06:24:45;;;;;;;6.70;1.85;;;17.20;71.50;;;20.13;58.92;100970.63;5053053;27;96949;-72
2021/06/30 06:27:34;;;;;;;0.65;0.65;;;17.20;71.50;;;20.15;59.15;100970.28;5026719;28;97345;-72
2021/06/30 06:30:26;;;;;;;2.08;0.55;;;17.20;71.40;;;20.14;58.95;100963.25;5062282;27;97395;-73
2021/06/30 06:33:12;;;;;;;0.68;0.68;;;17.30;71.50;;;20.10;59.58;100970.53;5042984;27;96882;-72
2021/06/30 06:35:59;;;;;;;11.50;1.55;;;17.30;71.40;;;20.17;58.85;100973.44;5063244;27;96690;-74
2021/06/30 06:38:40;;;;;;;0.85;0.73;;;17.30;71.40;;;20.15;59.32;100973.00;5104476;27;96794;-73
2021/06/30 06:41:21;;;;;;;0.28;0.28;;;17.30;71.40;;;20.14;58.95;100976.88;5045564;27;97582;-73
2021/06/30 06:44:09;;;;;;;3.70;1.75;;;17.30;71.40;;;20.10;58.86;100976.78;5062489;27;96853;-73
2021/06/30 06:46:56;;;;;;;1.17;0.93;;;17.30;71.50;;;20.12;59.84;100977.22;5106377;27;96762;-72
2021/06/30 06:49:43;;;;;;;4.20;0.63;;;17.30;71.50;;;20.18;58.95;100978.50;5064311;27;97211;-73
2021/06/30 06:52:29;;;;;;;3.83;0.80;;;17.30;71.50;;;20.20;59.56;100978.91;5093833;27;96653;-73
2021/06/30 06:55:15;;;;;;;2.15;1.95;;;17.40;71.50;;;20.27;58.95;100981.00;5068169;27;96911;-72
2021/06/30 06:58:04;;;;;;;2.33;1.73;;;17.40;71.50;;;20.29;58.59;100965.91;5043411;27;97021;-74
2021/06/30 07:00:50;;;;;;;4.30;1.00;;;17.40;71.40;;;20.32;58.96;100972.53;5101499;27;96637;-73
2021/06/30 07:03:35;;;;;;;0.65;0.60;;;17.40;71.40;;;20.32;59.33;100961.66;5127102;27;97499;-73
2021/06/30 07:06:22;;;;;;;4.28;1.38;;;17.50;71.40;;;20.39;58.83;100967.22;5065216;27;96791;-74
2021/06/30 07:09:08;;;;;;;1.27;1.00;;;17.50;71.40;;;20.43;58.84;100971.59;5097680;27;96842;-73
2021/06/30 07:11:50;;;;;;;0.45;0.45;;;17.50;71.30;;;20.47;58.61;100977.88;5108470;27;96659;-72
2021/06/30 07:14:37;;;;;;;4.07;1.17;;;17.50;71.30;;;20.55;59.06;100973.34;5089717;27;96661;-73
2021/06/30 07:17:23;;;;;;;0.82;0.82;;;17.60;71.30;;;20.60;59.05;100979.31;5065992;27;96938;-73
2021/06/30 07:20:10;;;;;;;1.55;0.95;;;17.70;71.30;;;20.66;58.93;100986.78;5054895;27;96794;-73
2021/06/30 07:22:56;;;;;;;4.03;0.82;;;17.70;71.20;;;20.73;58.87;100984.22;5042912;27;96863;-73
2021/06/30 07:25:45;;;;;;;10.40;1.08;;;17.80;71.20;;;20.77;58.54;100984.25;5101246;27;96738;-72
2021/06/30 07:28:33;;;;;;;16.75;2.05;;;17.80;71.20;;;20.77;58.19;100989.69;5066310;27;96512;-72
2021/06/30 07:31:22;;;;;;;0.25;0.25;;;17.80;71.20;;;20.75;58.35;100992.00;5067769;27;96728;-73
2021/06/30 07:34:07;;;;;;;1.20;1.10;;;17.80;71.10;;;20.68;59.08;100978.25;5107301;27;98508;-73
2021/06/30 07:36:54;;;;;;;1.75;0.90;;;17.80;71.10;;;20.58;58.78;100986.25;5067173;27;96851;-73
2021/06/30 07:39:40;;;;;;;1.20;0.70;;;17.80;71.20;;;20.49;59.52;100989.19;5053388;27;96814;-72
2021/06/30 07:42:26;;;;;;;1.65;1.13;;;17.80;71.20;;;20.46;59.19;100986.44;5092049;27;97281;-73
2021/06/30 07:45:13;;;;;;;0.55;0.55;;;17.80;71.30;;;20.43;59.20;100987.16;5125574;27;97768;-73
2021/06/30 07:47:54;;;;;;;1.50;1.02;;;17.80;71.40;;;20.41;60.19;100983.97;5087248;27;96955;-72
2021/06/30 07:50:36;;;;;;;0.93;0.75;;;17.80;71.40;;;20.42;59.86;100985.56;5109564;27;97690;-72
2021/06/30 07:53:18;;;;;;;0.68;0.68;;;17.80;71.40;;;20.47;59.42;100993.44;5053415;27;97212;-72
2021/06/30 07:55:59;;;;;;;0.75;0.52;;;17.70;71.50;;;20.44;59.26;100988.72;5072310;27;97300;-72
2021/06/30 07:58:43;;;;;;;1.50;0.90;;;17.70;71.50;;;20.39;59.67;100991.72;5082221;27;96990;-72
2021/06/30 08:01:23;;;;;;;0.30;0.30;;;17.70;71.50;;;20.36;59.47;100989.72;5053283;27;97106;-72
2021/06/30 08:04:07;;;;;;;4.00;1.40;;;17.70;71.50;;;20.36;60.30;100995.16;5048922;27;97081;-72
2021/06/30 08:06:49;;;;;;;1.00;0.88;;;17.70;71.60;;;20.42;59.64;100993.75;5064843;27;96944;-72
2021/06/30 08:09:31;;;;;;;0.68;0.45;;;17.70;71.60;;;20.47;59.71;100986.03;5067293;27;97287;-72
2021/06/30 08:12:12;;;;;;;5.07;1.63;;;17.70;71.50;;;20.73;59.19;100992.38;5064310;27;96742;-73
2021/06/30 08:14:54;;;;;;;1.02;0.98;;;17.70;71.70;;;20.69;59.37;100998.91;5063146;27;96763;-72
2021/06/30 08:17:36;;;;;;;2.33;1.10;;;17.70;71.80;;;20.71;58.71;100997.38;5043561;27;97084;-73
2021/06/30 08:20:17;;;;;;;1.15;0.82;;;17.80;71.70;;;20.79;59.68;100999.09;4992777;28;96740;-74
2021/06/30 08:22:58;;;;;;;0.88;0.88;;;17.80;71.60;;;20.82;58.83;100995.66;5055249;27;96884;-73
2021/06/30 08:25:44;;;;;;;0.55;0.55;;;17.80;71.50;;;20.89;58.66;101003.94;5053692;27;97484;-74
2021/06/30 08:28:27;;;;;;;0.68;0.68;;;17.90;71.40;;;20.89;58.91;101003.94;5049524;27;96685;-74
2021/06/30 08:31:09;;;;;;;4.72;0.85;;;18.00;71.30;;;20.93;58.88;101009.47;5066452;27;96606;-74
2021/06/30 08:33:50;;;;;;;0.98;0.98;;;18.00;71.30;;;20.94;58.41;101016.50;5069197;27;96870;-74
2021/06/30 08:36:32;;;;;;;0.32;0.32;;;18.00;71.20;;;20.94;58.61;101020.00;5089984;27;96663;-75
2021/06/30 08:39:13;;;;;;;1.88;1.23;;;18.00;71.20;;;20.89;59.27;101016.81;5041231;27;96752;-75
2021/06/30 08:41:55;;;;;;;1.08;1.08;;;18.00;71.20;;;20.92;58.61;101021.53;5108872;27;96930;-75
2021/06/30 08:44:37;;;;;;;1.38;0.47;;;18.10;71.20;;;20.94;58.30;101025.44;5048372;27;96583;-75
2021/06/30 08:47:24;;;;;;;0.00;0.00;;;18.00;71.20;;;20.93;58.96;101020.38;5051371;27;96685;-75
2021/06/30 08:50:08;;;;;;;0.25;0.25;;;18.10;71.20;;;21.03;58.06;101020.56;5085306;27;96778;-75
2021/06/30 08:52:52;;;;;;;0.32;0.30;;;18.10;71.10;;;21.14;58.11;101026.16;5110770;27;96819;-74
2021/06/30 08:55:48;;;;;;;0.43;0.32;;;18.10;71.10;;;21.14;58.61;101026.94;5047497;27;96676;-73
2021/06/30 08:58:32;;;;;;;0.93;0.65;;;18.20;71.10;;;21.21;58.12;101029.78;5064967;27;96611;-74
2021/06/30 09:01:14;;;;;;;3.45;1.98;;;18.20;71.00;;;21.32;57.26;101028.03;5052221;27;96644;-74
2021/06/30 09:03:56;;;;;;;0.50;0.50;;;18.20;71.00;;;21.26;58.06;101031.44;5059849;27;96725;-75
2021/06/30 09:06:37;;;;;;;3.88;1.42;;;18.30;71.00;;;21.37;57.82;101033.16;5047825;27;97064;-74
2021/06/30 09:09:19;;;;;;;6.65;1.13;;;18.40;70.90;;;21.57;57.77;101034.63;5047667;27;96863;-75
2021/06/30 09:12:00;;;;;;;4.03;0.25;;;18.40;70.80;;;21.67;57.95;101033.25;5044843;27;97057;-75
2021/06/30 09:14:43;;;;;;;0.45;0.40;;;18.50;70.60;;;21.80;57.25;101032.66;5054198;27;97259;-74
2021/06/30 09:17:28;;;;;;;7.78;1.52;;;18.60;70.50;;;21.85;56.87;101035.06;5052453;27;97312;-75
2021/06/30 09:20:12;;;;;;;2.95;2.08;;;18.70;70.40;;;21.90;56.91;101031.22;5059085;27;96582;-74
2021/06/30 09:22:57;;;;;;;0.68;0.68;;;18.80;70.40;;;22.04;56.97;101034.13;5054328;27;96939;-74
2021/06/30 09:25:45;;;;;;;2.35;1.17;;;18.90;70.40;;;22.18;56.59;101031.59;5077038;27;96873;-75
2021/06/30 09:28:27;;;;;;;0.85;0.70;;;18.90;70.20;;;22.45;56.53;101031.94;5043504;27;96841;-73
2021/06/30 09:31:10;;;;;;;0.10;0.10;;;19.10;70.10;;;22.72;56.29;101035.34;5050724;27;97037;-73
2021/06/30 09:33:54;;;;;;;0.08;0.08;;;19.20;69.90;;;22.95;55.33;101028.53;5106168;27;96830;-73
2021/06/30 09:36:47;;;;;;;1.13;1.08;;;19.40;69.70;;;23.02;55.58;101027.81;5047516;27;97203;-73
2021/06/30 09:39:30;;;;;;;15.70;0.68;;;19.60;69.60;;;22.67;56.39;101035.69;5042935;27;96763;-73
2021/06/30 09:42:14;;;;;;;2.72;0.85;;;19.60;69.90;;;22.41;56.93;101035.78;5062980;27;97219;-73
2021/06/30 09:45:13;;;;;;;0.85;0.73;;;19.50;69.80;;;22.30;57.60;101035.63;5056201;27;97070;-76
2021/06/30 09:47:54;;;;;;;0.40;0.20;;;19.40;69.90;;;22.23;58.30;101035.56;5025373;27;97315;-74
2021/06/30 09:50:40;;;;;;;0.45;0.45;;;19.40;70.00;;;22.12;58.19;101047.50;5051736;27;97516;-74
2021/06/30 09:53:36;;;;;;;0.75;0.75;;;19.30;70.10;;;22.09;57.68;101045.50;5106745;27;96792;-74
2021/06/30 09:56:36;;;;;;;1.08;0.22;;;19.30;70.40;;;22.23;57.35;101045.69;5052784;27;96828;-75
2021/06/30 09:59:26;;;;;;;0.25;0.25;;;19.20;70.40;;;22.60;56.97;101043.81;5066191;27;96865;-74
2021/06/30 10:02:13;;;;;;;0.38;0.30;;;19.30;70.50;;;22.88;56.29;101035.91;5084826;27;96968;-75
2021/06/30 10:05:05;;;;;;;3.15;1.17;;;19.40;70.20;;;22.96;56.39;101035.56;5069699;27;97148;-75
2021/06/30 10:07:47;;;;;;;1.77;0.73;;;19.60;70.00;;;23.07;56.36;101033.72;5046200;27;97241;-75
2021/06/30 10:10:28;;;;;;;1.60;1.10;;;19.70;69.80;;;23.38;55.64;101029.69;5054135;27;96981;-76
2021/06/30 10:13:10;;;;;;;0.47;0.47;;;19.80;69.60;;;23.43;55.60;101030.13;5045398;27;96809;-75
2021/06/30 10:15:51;;;;;;;0.60;0.60;;;20.00;69.50;;;23.60;55.22;101040.41;5068056;27;96669;-75
2021/06/30 10:18:35;;;;;;;1.55;0.63;;;20.10;69.30;;;23.73;55.24;101030.72;5048592;27;96624;-75
2021/06/30 10:21:21;;;;;;;0.60;0.32;;;20.20;69.10;;;23.63;55.46;101039.66;5088538;27;96688;-75
2021/06/30 10:24:03;;;;;;;1.58;0.60;;;20.30;69.10;;;23.53;55.67;101042.31;5105257;27;96705;-75
2021/06/30 10:26:45;;;;;;;2.20;1.13;;;20.20;69.30;;;23.41;56.11;101051.59;5088988;27;97233;-76
2021/06/30 10:29:30;;;;;;;0.85;0.43;;;20.20;69.40;;;23.65;55.83;101045.53;5102349;27;96617;-75
2021/06/30 10:32:16;;;;;;;1.85;1.48;;;20.30;69.40;;;24.15;54.54;101048.16;5044315;27;99147;-75
2021/06/30 10:35:07;;;;;;;0.88;0.85;;;20.50;69.20;;;24.70;53.61;101046.81;5066007;27;96811;-76
2021/06/30 10:37:54;;;;;;;1.67;0.93;;;20.70;68.90;;;25.20;52.76;101042.19;5065120;27;96861;-75
2021/06/30 10:40:36;;;;;;;0.68;0.30;;;21.10;68.60;;;25.36;52.53;101040.59;5105602;27;96851;-75
2021/06/30 10:43:20;;;;;;;3.25;1.42;;;21.40;68.10;;;24.99;53.84;101055.84;5119544;27;98913;-75
2021/06/30 10:46:27;;;;;;;2.22;1.17;;;21.40;68.20;;;24.85;54.31;101047.63;5109782;27;96743;-75
2021/06/30 10:49:29;;;;;;;0.25;0.25;;;21.40;68.40;;;24.72;54.75;101054.63;5091968;27;96839;-75
2021/06/30 10:52:25;;;;;;;1.98;1.27;;;21.30;68.30;;;24.65;55.28;101049.94;5109209;27;96653;-75
2021/06/30 10:55:07;;;;;;;2.97;0.88;;;21.40;68.40;;;24.49;55.61;101059.66;5036077;27;96783;-74
2021/06/30 10:57:48;;;;;;;0.68;0.68;;;21.30;68.60;;;24.13;56.56;101064.19;5064158;27;96929;-74
2021/06/30 11:00:34;;;;;;;1.50;1.25;;;21.10;68.80;;;23.83;57.12;101067.56;5105856;27;96845;-75
2021/06/30 11:03:29;;;;;;;1.17;0.60;;;20.90;69.20;;;23.61;57.63;101071.28;5094159;27;96635;-75
2021/06/30 11:06:30;;;;;;;0.43;0.38;;;20.80;69.50;;;23.53;57.49;101069.66;5063676;27;96907;-75
2021/06/30 11:09:25;;;;;;;0.45;0.45;;;20.60;69.70;;;23.47;57.59;101065.72;5121027;27;96982;-74
2021/06/30 11:12:07;;;;;;;1.27;1.17;;;20.50;69.80;;;23.49;57.23;101074.34;5063333;27;96992;-74
2021/06/30 11:14:48;;;;;;;3.40;1.25;;;20.40;69.90;;;23.40;57.47;101073.84;5065239;27;97700;-75
2021/06/30 11:17:38;;;;;;;0.45;0.40;;;20.40;70.00;;;23.45;57.35;101077.03;5055791;27;97026;-76
2021/06/30 11:20:45;;;;;;;0.55;0.52;;;20.30;70.00;;;23.47;57.13;101071.19;5111230;27;96672;-75
2021/06/30 11:23:28;;;;;;;1.27;1.10;;;20.30;70.10;;;23.33;57.30;101074.59;5034614;27;96837;-75
2021/06/30 11:26:40;;;;;;;1.25;1.13;;;20.30;70.20;;;23.23;57.67;101074.50;5094929;27;96746;-74
2021/06/30 11:29:53;;;;;;;2.72;0.93;;;20.20;70.20;;;22.95;58.02;101080.47;5067277;27;96785;-75
2021/06/30 11:32:53;;;;;;;2.03;1.00;;;20.10;70.40;;;22.72;58.75;101084.53;5107463;27;97165;-75